Time;durP1;ratioP1;P1;durP2;ratioP2;P2;SDS_P1;SDS_P2;PMS_P1;PMS_P2;Temp;Humidity;BMP_temperature;BMP_pressure;BME280_temperature;BME280_humidity;BME280_pressure;Samples;Min_cycle;Max_cycle;Signal;HPM_P1;HPM_P2
2022/10/25 00:00:51;;;;;;;;;;;12.30;99.90;;;;;;5062821;28;20008;-76
2022/10/25 00:03:17;;;;;;;;;;;12.40;99.90;;;;;;5061284;28;19916;-76
2022/10/25 00:05:42;;;;;;;;;;;12.30;99.90;;;;;;5028581;28;20256;-76
2022/10/25 00:08:08;;;;;;;;;;;12.30;99.90;;;;;;5041422;28;19955;-75
2022/10/25 00:10:34;;;;;;;;;;;12.30;99.90;;;;;;5027301;28;19917;-75
2022/10/25 00:12:59;;;;;;;;;;;12.20;99.90;;;;;;5048402;28;20375;-75
2022/10/25 00:15:25;;;;;;;;;;;12.20;99.90;;;;;;5060708;28;19923;-76
2022/10/25 00:17:50;;;;;;;;;;;12.10;99.90;;;;;;5061680;28;20464;-76
2022/10/25 00:20:16;;;;;;;;;;;12.10;99.90;;;;;;5037935;28;19964;-75
2022/10/25 00:22:41;;;;;;;;;;;12.00;99.90;;;;;;5060573;28;19920;-76
2022/10/25 00:25:07;;;;;;;;;;;12.00;99.90;;;;;;5060773;28;20099;-76
2022/10/25 00:27:33;;;;;;;;;;;12.00;99.90;;;;;;5042297;28;19916;-76
2022/10/25 00:29:58;;;;;;;;;;;11.90;99.90;;;;;;5061467;28;19916;-76
2022/10/25 00:32:24;;;;;;;;;;;11.90;99.90;;;;;;5060611;28;20437;-76
2022/10/25 00:34:49;;;;;;;;;;;11.90;99.90;;;;;;5062622;28;19916;-75
2022/10/25 00:37:15;;;;;;;;;;;11.80;99.90;;;;;;5057447;28;20119;-76
2022/10/25 00:39:41;;;;;;;;;;;11.80;99.90;;;;;;5024471;28;19925;-76
2022/10/25 00:42:08;;;;;;;;;;;11.80;99.90;;;;;;5053723;28;19936;-75
2022/10/25 00:44:39;;;;;;;;;;;11.80;99.90;;;;;;5039169;28;19916;-76
2022/10/25 00:47:20;;;;;;;;;;;11.80;99.90;;;;;;5061814;28;19971;-76
2022/10/25 00:49:53;;;;;;;;;;;11.80;99.90;;;;;;5061753;28;19912;-76
2022/10/25 00:52:19;;;;;;;;;;;11.70;99.90;;;;;;5039133;28;19927;-75
2022/10/25 00:54:47;;;;;;;;;;;11.70;99.90;;;;;;5032074;28;19916;-76
2022/10/25 00:57:18;;;;;;;;;;;11.60;99.90;;;;;;5060082;28;19970;-76
2022/10/25 00:59:45;;;;;;;;;;;11.50;99.90;;;;;;5051389;28;20027;-76
2022/10/25 01:02:11;;;;;;;;;;;11.50;99.90;;;;;;5025760;28;20324;-76
2022/10/25 01:04:36;;;;;;;;;;;11.50;99.90;;;;;;5043603;28;19920;-75
2022/10/25 01:07:02;;;;;;;;;;;11.40;99.90;;;;;;5056020;28;19921;-76
2022/10/25 01:09:32;;;;;;;;;;;11.40;99.90;;;;;;5062642;28;19920;-75
2022/10/25 01:11:58;;;;;;;;;;;11.30;99.90;;;;;;5061280;28;20145;-75
2022/10/25 01:14:25;;;;;;;;;;;11.30;99.90;;;;;;5062415;28;20015;-75
2022/10/25 01:17:03;;;;;;;;;;;11.20;99.90;;;;;;5060768;28;20889;-76
2022/10/25 01:19:47;;;;;;;;;;;11.20;99.90;;;;;;5063305;28;19931;-75
2022/10/25 01:22:31;;;;;;;;;;;11.20;99.90;;;;;;5044248;28;19923;-75
2022/10/25 01:24:57;;;;;;;;;;;11.20;99.90;;;;;;5064563;28;19925;-76
2022/10/25 01:27:41;;;;;;;;;;;11.30;99.90;;;;;;5066273;28;20332;-76
2022/10/25 01:30:11;;;;;;;;;;;11.30;99.90;;;;;;5050109;28;20331;-75
2022/10/25 01:32:42;;;;;;;;;;;11.20;99.90;;;;;;5036753;28;20454;-75
2022/10/25 01:35:16;;;;;;;;;;;11.20;99.90;;;;;;5056444;28;19916;-75
2022/10/25 01:37:51;;;;;;;;;;;11.20;99.90;;;;;;5056894;28;19972;-75
2022/10/25 01:40:27;;;;;;;;;;;11.20;99.90;;;;;;5064398;28;19940;-75
2022/10/25 01:42:55;;;;;;;;;;;11.10;99.90;;;;;;5048628;28;19916;-75
2022/10/25 01:45:26;;;;;;;;;;;11.10;99.90;;;;;;5064409;28;21263;-75
2022/10/25 01:47:53;;;;;;;;;;;11.10;99.90;;;;;;5062893;28;19923;-75
2022/10/25 01:50:19;;;;;;;;;;;11.20;99.90;;;;;;5044946;28;19921;-75
2022/10/25 01:52:44;;;;;;;;;;;11.10;99.90;;;;;;5047392;28;20249;-75
2022/10/25 01:55:11;;;;;;;;;;;11.10;99.90;;;;;;5063817;28;19916;-75
2022/10/25 01:57:40;;;;;;;;;;;11.20;99.90;;;;;;5065657;28;19916;-76
2022/10/25 02:00:20;;;;;;;;;;;11.30;99.90;;;;;;5046048;28;19927;-76
2022/10/25 02:03:04;;;;;;;;;;;11.30;99.90;;;;;;5064367;28;20005;-75
2022/10/25 02:05:53;;;;;;;;;;;11.20;99.90;;;;;;5063605;28;20007;-75
2022/10/25 02:08:38;;;;;;;;;;;11.20;99.90;;;;;;5041435;28;19929;-75
2022/10/25 02:11:04;;;;;;;;;;;11.10;99.90;;;;;;5046648;28;20342;-76
2022/10/25 02:13:35;;;;;;;;;;;11.10;99.90;;;;;;5061274;28;20292;-75
2022/10/25 02:16:10;;;;;;;;;;;11.10;99.90;;;;;;5050475;28;19966;-76
2022/10/25 02:18:37;;;;;;;;;;;11.10;99.90;;;;;;5059554;28;19982;-76
2022/10/25 02:21:04;;;;;;;;;;;11.10;99.90;;;;;;5064895;28;20611;-76
2022/10/25 02:23:31;;;;;;;;;;;11.10;99.90;;;;;;5063708;28;19921;-76
2022/10/25 02:25:57;;;;;;;;;;;11.10;99.90;;;;;;5032099;28;19963;-76
2022/10/25 02:28:25;;;;;;;;;;;11.10;99.90;;;;;;5044682;28;20355;-75
2022/10/25 02:30:51;;;;;;;;;;;11.20;99.90;;;;;;5056035;28;19928;-75
2022/10/25 02:33:17;;;;;;;;;;;11.20;99.90;;;;;;5044099;28;19917;-76
2022/10/25 02:35:42;;;;;;;;;;;11.30;99.90;;;;;;5059874;28;19922;-76
2022/10/25 02:38:08;;;;;;;;;;;11.30;99.90;;;;;;5038009;28;20375;-75
2022/10/25 02:40:34;;;;;;;;;;;11.20;99.90;;;;;;5063073;28;19970;-75
2022/10/25 02:42:59;;;;;;;;;;;11.20;99.90;;;;;;5063757;28;19924;-75
2022/10/25 02:45:25;;;;;;;;;;;11.20;99.90;;;;;;5064299;28;20296;-75
2022/10/25 02:47:50;;;;;;;;;;;11.20;99.90;;;;;;5060033;28;20007;-75
2022/10/25 02:50:16;;;;;;;;;;;11.30;99.90;;;;;;5048702;28;20054;-75
2022/10/25 02:52:41;;;;;;;;;;;11.30;99.90;;;;;;5058837;28;19920;-75
2022/10/25 02:55:07;;;;;;;;;;;11.30;99.90;;;;;;5064126;28;19939;-75
2022/10/25 02:57:33;;;;;;;;;;;11.30;99.90;;;;;;5065394;28;19923;-76
2022/10/25 02:59:59;;;;;;;;;;;11.30;99.90;;;;;;5063789;28;19924;-75
2022/10/25 03:02:24;;;;;;;;;;;11.30;99.90;;;;;;5045446;28;20030;-76
2022/10/25 03:04:49;;;;;;;;;;;11.40;99.90;;;;;;5065229;28;19916;-75
2022/10/25 03:07:15;;;;;;;;;;;11.50;99.90;;;;;;5065776;28;19952;-75
2022/10/25 03:09:40;;;;;;;;;;;11.50;99.90;;;;;;5059272;28;19919;-75
2022/10/25 03:12:06;;;;;;;;;;;11.50;99.90;;;;;;5062678;28;20315;-76
2022/10/25 03:14:31;;;;;;;;;;;11.60;99.90;;;;;;5038965;28;20047;-75
2022/10/25 03:16:57;;;;;;;;;;;11.50;99.90;;;;;;5045374;28;20010;-75
2022/10/25 03:19:22;;;;;;;;;;;11.50;99.90;;;;;;5045393;28;20394;-76
2022/10/25 03:21:48;;;;;;;;;;;11.40;99.90;;;;;;5045989;28;19919;-76
2022/10/25 03:24:13;;;;;;;;;;;11.40;99.90;;;;;;5044881;28;20299;-75
2022/10/25 03:26:39;;;;;;;;;;;11.30;99.90;;;;;;5053687;28;19920;-75
2022/10/25 03:29:04;;;;;;;;;;;11.40;99.90;;;;;;5062698;28;19916;-75
2022/10/25 03:31:30;;;;;;;;;;;11.40;99.90;;;;;;5044382;28;20032;-75
2022/10/25 03:33:55;;;;;;;;;;;11.50;99.90;;;;;;5048615;28;20416;-75
2022/10/25 03:36:21;;;;;;;;;;;11.50;99.90;;;;;;5057918;28;19916;-76
2022/10/25 03:38:46;;;;;;;;;;;11.50;99.90;;;;;;5031337;28;19924;-76
2022/10/25 03:41:12;;;;;;;;;;;11.40;99.90;;;;;;5054024;28;19921;-76
2022/10/25 03:43:38;;;;;;;;;;;11.50;99.90;;;;;;5043855;28;19925;-75
2022/10/25 03:46:03;;;;;;;;;;;11.50;99.90;;;;;;5044569;28;20452;-75
2022/10/25 03:48:29;;;;;;;;;;;11.50;99.90;;;;;;5045290;28;20206;-75
2022/10/25 03:50:54;;;;;;;;;;;11.50;99.90;;;;;;5052366;28;20458;-76
2022/10/25 03:53:20;;;;;;;;;;;11.50;99.90;;;;;;5055347;28;19920;-75
2022/10/25 03:55:45;;;;;;;;;;;11.60;99.90;;;;;;5045402;28;20758;-76
2022/10/25 03:58:11;;;;;;;;;;;11.70;99.90;;;;;;5063406;28;19920;-76
2022/10/25 04:00:36;;;;;;;;;;;11.90;99.90;;;;;;5063314;28;20603;-76
2022/10/25 04:03:02;;;;;;;;;;;12.00;99.90;;;;;;5058958;28;19955;-75
2022/10/25 04:05:28;;;;;;;;;;;12.20;99.90;;;;;;5043470;28;19916;-75
2022/10/25 04:07:54;;;;;;;;;;;12.40;99.90;;;;;;5043401;28;19962;-76
2022/10/25 04:10:19;;;;;;;;;;;12.50;99.90;;;;;;5043669;28;19922;-74
2022/10/25 04:12:45;;;;;;;;;;;12.50;99.90;;;;;;5027901;28;20638;-76
2022/10/25 04:15:11;;;;;;;;;;;12.50;99.90;;;;;;5054287;28;20340;-76
2022/10/25 04:17:37;;;;;;;;;;;12.50;99.90;;;;;;5055426;28;19917;-76
2022/10/25 04:20:02;;;;;;;;;;;12.40;99.90;;;;;;5041982;28;19928;-76
2022/10/25 04:22:28;;;;;;;;;;;12.30;99.90;;;;;;5048478;28;20011;-76
2022/10/25 04:24:53;;;;;;;;;;;12.20;99.90;;;;;;5064047;28;19925;-75
2022/10/25 04:27:19;;;;;;;;;;;12.20;99.90;;;;;;5076978;28;19958;-75
2022/10/25 04:29:44;;;;;;;;;;;12.10;99.90;;;;;;5081650;28;19916;-75
2022/10/25 04:32:10;;;;;;;;;;;12.10;99.90;;;;;;5081366;28;19927;-76
2022/10/25 04:34:36;;;;;;;;;;;12.10;99.90;;;;;;5064966;28;19916;-76
2022/10/25 04:37:01;;;;;;;;;;;12.00;99.90;;;;;;5083196;28;19927;-75
2022/10/25 04:39:27;;;;;;;;;;;12.00;99.90;;;;;;5069173;28;19928;-76
2022/10/25 04:41:52;;;;;;;;;;;11.90;99.90;;;;;;5073770;28;19920;-75
2022/10/25 04:44:18;;;;;;;;;;;11.90;99.90;;;;;;5069841;28;19916;-76
2022/10/25 04:46:43;;;;;;;;;;;12.10;99.90;;;;;;5078238;28;20231;-75
2022/10/25 04:49:12;;;;;;;;;;;12.20;99.90;;;;;;5078900;28;20018;-76
2022/10/25 04:51:38;;;;;;;;;;;12.20;99.90;;;;;;5078415;28;19988;-76
2022/10/25 04:54:04;;;;;;;;;;;12.30;99.90;;;;;;5076690;28;19920;-75
2022/10/25 04:56:29;;;;;;;;;;;12.30;99.90;;;;;;5064249;28;20401;-76
2022/10/25 04:58:55;;;;;;;;;;;12.30;99.90;;;;;;5063033;28;19920;-76
2022/10/25 05:01:20;;;;;;;;;;;12.30;99.90;;;;;;5062998;28;19920;-76
2022/10/25 05:03:46;;;;;;;;;;;12.20;99.90;;;;;;5074697;28;19917;-76
2022/10/25 05:06:11;;;;;;;;;;;12.20;99.90;;;;;;5083243;28;20020;-77
2022/10/25 05:08:38;;;;;;;;;;;12.20;99.90;;;;;;5081782;28;19920;-77
2022/10/25 05:11:04;;;;;;;;;;;12.20;99.90;;;;;;5060951;28;20029;-76
2022/10/25 05:13:30;;;;;;;;;;;12.20;99.90;;;;;;5078707;28;19920;-76
2022/10/25 05:15:56;;;;;;;;;;;12.30;99.90;;;;;;5080898;28;20398;-76
2022/10/25 05:18:22;;;;;;;;;;;12.30;99.90;;;;;;5063238;28;19959;-77
2022/10/25 05:20:54;;;;;;;;;;;12.30;99.90;;;;;;5079826;28;20019;-76
2022/10/25 05:23:20;;;;;;;;;;;12.30;99.90;;;;;;5074370;28;20426;-76
2022/10/25 05:25:45;;;;;;;;;;;12.30;99.90;;;;;;5065539;28;20011;-75
2022/10/25 05:28:11;;;;;;;;;;;12.40;99.90;;;;;;5068246;28;19999;-76
2022/10/25 05:30:43;;;;;;;;;;;12.40;99.90;;;;;;5068895;28;19922;-75
2022/10/25 05:33:08;;;;;;;;;;;12.30;99.90;;;;;;5080144;28;20298;-76
2022/10/25 05:35:34;;;;;;;;;;;12.30;99.90;;;;;;5082627;28;19912;-76
2022/10/25 05:38:00;;;;;;;;;;;12.40;99.90;;;;;;5083057;28;19946;-75
2022/10/25 05:40:26;;;;;;;;;;;12.40;99.90;;;;;;5050754;28;20412;-76
2022/10/25 05:42:52;;;;;;;;;;;12.40;99.90;;;;;;5082227;28;19916;-75
2022/10/25 05:45:17;;;;;;;;;;;12.40;99.90;;;;;;5065066;28;19951;-78
2022/10/25 05:47:43;;;;;;;;;;;12.40;99.90;;;;;;5060073;28;19960;-77
2022/10/25 05:50:08;;;;;;;;;;;12.30;99.90;;;;;;5064200;28;20338;-77
2022/10/25 05:52:34;;;;;;;;;;;12.20;99.90;;;;;;5067446;28;19920;-77
2022/10/25 05:54:59;;;;;;;;;;;12.20;99.90;;;;;;5061629;28;19920;-75
2022/10/25 05:57:25;;;;;;;;;;;12.10;99.90;;;;;;5072076;28;19917;-76
2022/10/25 05:59:50;;;;;;;;;;;12.10;99.90;;;;;;5055646;28;20044;-75
2022/10/25 06:02:16;;;;;;;;;;;12.20;99.90;;;;;;5054390;28;19916;-75
2022/10/25 06:04:41;;;;;;;;;;;12.40;99.90;;;;;;5063380;28;19939;-75
2022/10/25 06:07:06;;;;;;;;;;;12.60;99.90;;;;;;5070233;28;19947;-75
2022/10/25 06:09:32;;;;;;;;;;;12.60;99.90;;;;;;5085771;28;19912;-76
2022/10/25 06:11:57;;;;;;;;;;;12.60;99.90;;;;;;5079674;28;19916;-76
2022/10/25 06:14:23;;;;;;;;;;;12.70;99.90;;;;;;5066259;28;19923;-76
2022/10/25 06:16:48;;;;;;;;;;;12.80;99.90;;;;;;5066877;28;20424;-76
2022/10/25 06:19:14;;;;;;;;;;;12.90;99.90;;;;;;5086036;28;19928;-76
2022/10/25 06:21:39;;;;;;;;;;;12.90;99.90;;;;;;5085529;28;19939;-76
2022/10/25 06:24:05;;;;;;;;;;;13.00;99.90;;;;;;5072363;28;19924;-77
2022/10/25 06:26:31;;;;;;;;;;;13.10;99.90;;;;;;5053072;28;20003;-76
2022/10/25 06:29:01;;;;;;;;;;;13.10;99.90;;;;;;5063970;28;19924;-77
2022/10/25 06:31:27;;;;;;;;;;;13.20;99.90;;;;;;5061426;28;20210;-77
2022/10/25 06:33:53;;;;;;;;;;;13.20;99.90;;;;;;5046158;28;20319;-77
2022/10/25 06:36:19;;;;;;;;;;;13.20;99.90;;;;;;5063507;28;19967;-78
2022/10/25 06:38:46;;;;;;;;;;;13.20;99.90;;;;;;5034600;28;19921;-77
2022/10/25 06:41:12;;;;;;;;;;;13.10;99.90;;;;;;5057197;28;20347;-75
2022/10/25 06:43:38;;;;;;;;;;;13.10;99.90;;;;;;4705973;28;10000238;-76
2022/10/25 06:46:05;;;;;;;;;;;13.10;99.90;;;;;;5053774;28;20152;-75
2022/10/25 06:48:30;;;;;;;;;;;13.00;99.90;;;;;;5049656;28;20263;-76
2022/10/25 06:51:03;;;;;;;;;;;13.00;99.90;;;;;;5058519;28;20020;-76
2022/10/25 06:53:28;;;;;;;;;;;13.00;99.90;;;;;;5053988;28;19916;-76
2022/10/25 06:55:57;;;;;;;;;;;13.00;99.90;;;;;;5039326;28;19920;-78
2022/10/25 06:58:23;;;;;;;;;;;12.90;99.90;;;;;;5035027;28;19968;-77
2022/10/25 07:00:48;;;;;;;;;;;12.90;99.90;;;;;;5056207;28;20431;-77
2022/10/25 07:03:14;;;;;;;;;;;13.00;99.90;;;;;;5049588;28;19917;-78
2022/10/25 07:05:39;;;;;;;;;;;13.00;99.90;;;;;;5056925;28;20023;-77
2022/10/25 07:08:05;;;;;;;;;;;12.90;99.90;;;;;;5058830;28;19917;-78
2022/10/25 07:10:30;;;;;;;;;;;12.90;99.90;;;;;;5059195;28;19917;-77
2022/10/25 07:12:56;;;;;;;;;;;12.80;99.90;;;;;;5061826;28;19923;-78
2022/10/25 07:15:23;;;;;;;;;;;12.70;99.90;;;;;;5050913;28;20000;-78
2022/10/25 07:17:49;;;;;;;;;;;12.80;99.90;;;;;;5045700;28;20002;-78
2022/10/25 07:20:14;;;;;;;;;;;12.80;99.90;;;;;;5049993;28;19932;-78
2022/10/25 07:22:40;;;;;;;;;;;12.80;99.90;;;;;;5040532;28;20367;-78
2022/10/25 07:25:05;;;;;;;;;;;12.90;99.90;;;;;;5056998;28;19924;-78
2022/10/25 07:27:32;;;;;;;;;;;13.00;99.90;;;;;;5060620;28;20521;-77
2022/10/25 07:29:57;;;;;;;;;;;13.00;99.90;;;;;;5036162;28;20334;-78
2022/10/25 07:32:23;;;;;;;;;;;13.10;99.90;;;;;;5039212;28;20154;-78
2022/10/25 07:34:49;;;;;;;;;;;13.10;99.90;;;;;;5037094;28;19920;-78
2022/10/25 07:37:14;;;;;;;;;;;13.10;99.90;;;;;;5057068;28;19946;-78
2022/10/25 07:39:40;;;;;;;;;;;13.20;99.90;;;;;;5053949;28;19935;-78
2022/10/25 07:42:05;;;;;;;;;;;13.20;99.90;;;;;;5054746;28;19917;-78
2022/10/25 07:44:31;;;;;;;;;;;13.20;99.90;;;;;;5055553;28;20276;-78
2022/10/25 07:46:56;;;;;;;;;;;13.30;99.90;;;;;;5035304;28;19946;-78
2022/10/25 07:49:22;;;;;;;;;;;13.40;99.90;;;;;;5033001;28;19924;-78
2022/10/25 07:51:47;;;;;;;;;;;13.50;99.90;;;;;;5035129;28;20045;-79
2022/10/25 07:54:13;;;;;;;;;;;13.50;99.90;;;;;;5049557;28;19916;-77
2022/10/25 07:56:38;;;;;;;;;;;13.60;99.90;;;;;;5049076;28;19916;-78
2022/10/25 07:59:04;;;;;;;;;;;13.80;99.90;;;;;;5041909;28;19920;-79
2022/10/25 08:01:29;;;;;;;;;;;14.20;99.90;;;;;;5059080;28;20309;-79
2022/10/25 08:03:55;;;;;;;;;;;15.10;99.90;;;;;;5041680;28;19981;-78
2022/10/25 08:06:22;;;;;;;;;;;15.80;99.90;;;;;;5032852;28;20354;-78
2022/10/25 08:08:47;;;;;;;;;;;16.50;99.90;;;;;;5052095;28;19920;-78
2022/10/25 08:11:13;;;;;;;;;;;17.10;99.90;;;;;;5053521;28;20036;-78
2022/10/25 08:13:39;;;;;;;;;;;17.40;99.90;;;;;;5054193;28;20092;-78
2022/10/25 08:16:05;;;;;;;;;;;17.90;99.90;;;;;;5050547;28;20233;-78
2022/10/25 08:18:31;;;;;;;;;;;17.60;99.90;;;;;;5034492;28;20188;-78
2022/10/25 08:20:56;;;;;;;;;;;17.10;99.90;;;;;;5056174;28;19924;-77
2022/10/25 08:23:24;;;;;;;;;;;16.70;99.90;;;;;;5038411;28;20336;-77
2022/10/25 08:25:49;;;;;;;;;;;16.30;99.90;;;;;;5051938;28;19928;-78
2022/10/25 08:28:15;;;;;;;;;;;16.00;99.90;;;;;;5046767;28;19993;-76
2022/10/25 08:30:40;;;;;;;;;;;16.10;99.90;;;;;;5035788;28;20044;-76
2022/10/25 08:33:06;;;;;;;;;;;16.20;99.90;;;;;;5051764;28;19917;-76
2022/10/25 08:35:32;;;;;;;;;;;16.30;99.90;;;;;;5052876;28;19917;-76
2022/10/25 08:38:01;;;;;;;;;;;16.20;99.90;;;;;;5054251;28;19983;-77
2022/10/25 08:40:45;;;;;;;;;;;16.20;99.90;;;;;;5039906;28;19924;-77
2022/10/25 08:43:29;;;;;;;;;;;16.10;99.90;;;;;;5057113;28;20368;-78
2022/10/25 08:46:07;;;;;;;;;;;16.10;99.90;;;;;;5057721;28;19923;-75
2022/10/25 08:48:35;;;;;;;;;;;16.00;99.90;;;;;;5059467;28;19916;-78
2022/10/25 08:51:03;;;;;;;;;;;15.90;99.90;;;;;;5052367;28;19916;-77
2022/10/25 08:53:32;;;;;;;;;;;15.90;99.90;;;;;;5038949;28;20035;-76
2022/10/25 08:55:58;;;;;;;;;;;15.80;99.90;;;;;;5054751;28;19976;-76
2022/10/25 08:58:46;;;;;;;;;;;15.70;99.90;;;;;;5055274;28;19916;-77
2022/10/25 09:01:14;;;;;;;;;;;15.60;99.90;;;;;;5030125;28;19932;-74
2022/10/25 09:03:44;;;;;;;;;;;15.70;99.90;;;;;;5033817;28;19931;-78
2022/10/25 09:06:19;;;;;;;;;;;15.60;99.90;;;;;;5036823;28;20428;-76
2022/10/25 09:08:45;;;;;;;;;;;15.50;99.90;;;;;;5052464;28;20039;-78
2022/10/25 09:11:16;;;;;;;;;;;15.40;99.90;;;;;;5032456;28;20023;-77
2022/10/25 09:13:49;;;;;;;;;;;15.30;99.90;;;;;;5039833;28;19998;-77
2022/10/25 09:16:15;;;;;;;;;;;15.70;99.90;;;;;;5034710;28;19935;-76
2022/10/25 09:18:40;;;;;;;;;;;16.10;99.90;;;;;;5051106;28;19917;-76
2022/10/25 09:21:09;;;;;;;;;;;16.40;99.90;;;;;;5053685;28;19920;-76
2022/10/25 09:23:35;;;;;;;;;;;16.60;99.90;;;;;;5056810;28;19928;-75
2022/10/25 09:26:06;;;;;;;;;;;16.80;99.90;;;;;;5054803;28;20924;-75
2022/10/25 09:28:38;;;;;;;;;;;17.00;99.90;;;;;;5056052;28;19956;-75
2022/10/25 09:31:04;;;;;;;;;;;17.40;99.90;;;;;;5028758;28;20011;-75
2022/10/25 09:33:29;;;;;;;;;;;18.40;99.90;;;;;;5046732;28;20000;-75
2022/10/25 09:35:58;;;;;;;;;;;19.80;99.90;;;;;;5041473;28;19916;-75
2022/10/25 09:38:26;;;;;;;;;;;20.70;99.90;;;;;;5035774;28;19917;-77
2022/10/25 09:41:02;;;;;;;;;;;20.70;99.90;;;;;;5037795;28;19947;-77
2022/10/25 09:43:34;;;;;;;;;;;21.00;99.90;;;;;;5032138;28;19921;-77
2022/10/25 09:46:03;;;;;;;;;;;20.90;99.90;;;;;;5055187;28;20383;-77
2022/10/25 09:48:38;;;;;;;;;;;21.50;99.90;;;;;;5060003;28;20005;-79
2022/10/25 09:51:12;;;;;;;;;;;22.20;99.90;;;;;;5062338;28;20011;-77
2022/10/25 09:53:39;;;;;;;;;;;22.10;99.90;;;;;;4708475;28;10000204;-78
2022/10/25 09:56:05;;;;;;;;;;;21.60;99.90;;;;;;5042363;28;19913;-78
2022/10/25 09:58:36;;;;;;;;;;;21.50;99.90;;;;;;5056623;28;19947;-77
2022/10/25 10:01:07;;;;;;;;;;;21.00;99.90;;;;;;5061612;28;20387;-75
2022/10/25 10:03:34;;;;;;;;;;;20.40;99.90;;;;;;5059038;28;19916;-75
2022/10/25 10:06:14;;;;;;;;;;;19.80;99.90;;;;;;5060855;28;20329;-77
2022/10/25 10:08:42;;;;;;;;;;;19.60;99.90;;;;;;5054290;28;19970;-76
2022/10/25 10:11:13;;;;;;;;;;;19.40;99.90;;;;;;5041016;28;19954;-76
2022/10/25 10:13:43;;;;;;;;;;;19.60;99.90;;;;;;5062470;28;19965;-76
2022/10/25 10:16:26;;;;;;;;;;;20.50;99.90;;;;;;5063133;28;19935;-77
2022/10/25 10:19:11;;;;;;;;;;;21.10;99.90;;;;;;5057575;28;20384;-76
2022/10/25 10:21:41;;;;;;;;;;;21.20;99.90;;;;;;5040099;28;19960;-77
2022/10/25 10:24:12;;;;;;;;;;;21.20;99.90;;;;;;5054728;28;19928;-77
2022/10/25 10:26:50;;;;;;;;;;;22.00;99.90;;;;;;5055861;28;19921;-78
2022/10/25 10:29:20;;;;;;;;;;;22.70;99.90;;;;;;5028472;28;19927;-77
2022/10/25 10:31:47;;;;;;;;;;;22.00;99.90;;;;;;5054755;28;19916;-77
2022/10/25 10:34:23;;;;;;;;;;;21.20;99.90;;;;;;5055393;28;20071;-76
2022/10/25 10:37:02;;;;;;;;;;;21.30;99.90;;;;;;5057375;28;19916;-79
2022/10/25 10:39:28;;;;;;;;;;;21.20;99.90;;;;;;5039507;28;20001;-78
2022/10/25 10:42:01;;;;;;;;;;;20.60;99.90;;;;;;5062127;28;19926;-77
2022/10/25 10:44:28;;;;;;;;;;;20.30;99.90;;;;;;5058578;28;19920;-75
2022/10/25 10:46:56;;;;;;;;;;;19.50;99.90;;;;;;5053537;28;20011;-77
2022/10/25 10:49:29;;;;;;;;;;;18.90;99.90;;;;;;5054708;28;20359;-76
2022/10/25 10:51:55;;;;;;;;;;;18.60;99.90;;;;;;5053634;28;19920;-76
2022/10/25 10:54:23;;;;;;;;;;;18.40;99.90;;;;;;5045535;28;19921;-76
2022/10/25 10:56:55;;;;;;;;;;;18.70;99.90;;;;;;5045162;28;19917;-76
2022/10/25 10:59:27;;;;;;;;;;;20.80;99.90;;;;;;5039312;28;19975;-75
2022/10/25 11:01:52;;;;;;;;;;;23.10;99.90;;;;;;5052556;28;20431;-76
2022/10/25 11:04:18;;;;;;;;;;;25.10;99.90;;;;;;5052146;28;19956;-75
2022/10/25 11:06:43;;;;;;;;;;;25.10;98.60;;;;;;5055988;28;19917;-77
2022/10/25 11:09:09;;;;;;;;;;;23.90;99.60;;;;;;5057158;28;20010;-76
2022/10/25 11:11:35;;;;;;;;;;;22.50;99.90;;;;;;5039919;28;20588;-77
2022/10/25 11:14:00;;;;;;;;;;;21.30;99.90;;;;;;5056108;28;19927;-76
2022/10/25 11:16:37;;;;;;;;;;;20.40;99.90;;;;;;5061732;28;20011;-77
2022/10/25 11:19:02;;;;;;;;;;;20.70;99.90;;;;;;5056545;28;19927;-75
2022/10/25 11:21:28;;;;;;;;;;;21.50;99.90;;;;;;5055279;28;19916;-77
2022/10/25 11:23:56;;;;;;;;;;;21.90;99.90;;;;;;5057416;28;19920;-76
2022/10/25 11:26:22;;;;;;;;;;;22.30;99.90;;;;;;5058158;28;19912;-75
2022/10/25 11:28:52;;;;;;;;;;;22.50;99.90;;;;;;5037030;28;19924;-75
2022/10/25 11:31:24;;;;;;;;;;;21.80;99.90;;;;;;5054739;28;19916;-74
2022/10/25 11:34:05;;;;;;;;;;;21.10;99.90;;;;;;5043736;28;19928;-74
2022/10/25 11:36:30;;;;;;;;;;;20.90;99.90;;;;;;5051841;28;20430;-74
2022/10/25 11:39:15;;;;;;;;;;;21.00;99.90;;;;;;5035038;28;19920;-74
2022/10/25 11:41:50;;;;;;;;;;;21.20;99.90;;;;;;5040088;28;19989;-74
2022/10/25 11:44:22;;;;;;;;;;;21.10;99.90;;;;;;5052927;28;20019;-74
2022/10/25 11:46:47;;;;;;;;;;;21.00;99.90;;;;;;5056741;28;19969;-74
2022/10/25 11:49:36;;;;;;;;;;;21.00;99.90;;;;;;5058234;28;19924;-75
2022/10/25 11:52:01;;;;;;;;;;;21.40;99.90;;;;;;4990815;28;20352;-74
2022/10/25 11:54:30;;;;;;;;;;;21.60;99.90;;;;;;5048700;28;19998;-74
2022/10/25 11:57:02;;;;;;;;;;;21.80;99.90;;;;;;5049450;28;20049;-74
2022/10/25 11:59:43;;;;;;;;;;;21.80;99.90;;;;;;5045637;28;20864;-73
2022/10/25 12:02:33;;;;;;;;;;;21.60;99.90;;;;;;5031102;28;19916;-73
2022/10/25 12:05:08;;;;;;;;;;;20.90;99.90;;;;;;5028580;28;19920;-74
2022/10/25 12:07:33;;;;;;;;;;;20.60;99.90;;;;;;5024751;28;20011;-74
2022/10/25 12:10:12;;;;;;;;;;;20.40;99.90;;;;;;5048487;28;20050;-75
2022/10/25 12:12:47;;;;;;;;;;;20.30;99.90;;;;;;5047079;28;19959;-74
2022/10/25 12:15:23;;;;;;;;;;;20.00;99.90;;;;;;5049850;28;19982;-74
2022/10/25 12:17:49;;;;;;;;;;;19.80;99.90;;;;;;5028858;28;19924;-75
2022/10/25 12:20:21;;;;;;;;;;;19.30;99.90;;;;;;5048849;28;19975;-74
2022/10/25 12:22:49;;;;;;;;;;;18.70;99.90;;;;;;5029266;28;19972;-74
2022/10/25 12:25:17;;;;;;;;;;;18.20;99.90;;;;;;5029271;28;19936;-75
2022/10/25 12:27:45;;;;;;;;;;;18.00;99.90;;;;;;4700035;28;10000060;-74
2022/10/25 12:30:15;;;;;;;;;;;18.10;99.90;;;;;;5040894;28;20070;-74
2022/10/25 12:32:49;;;;;;;;;;;18.40;99.90;;;;;;5046220;28;19947;-74
2022/10/25 12:35:21;;;;;;;;;;;18.90;99.90;;;;;;5049898;28;20322;-73
2022/10/25 12:37:51;;;;;;;;;;;19.10;99.90;;;;;;5045203;28;19916;-74
2022/10/25 12:40:19;;;;;;;;;;;18.90;99.90;;;;;;5047343;28;19969;-73
2022/10/25 12:42:56;;;;;;;;;;;18.70;99.90;;;;;;5045111;28;20008;-75
2022/10/25 12:45:21;;;;;;;;;;;18.40;99.90;;;;;;5046432;28;19920;-74
2022/10/25 12:48:10;;;;;;;;;;;18.60;99.90;;;;;;5045611;28;19917;-76
2022/10/25 12:50:52;;;;;;;;;;;19.10;99.90;;;;;;5043564;28;20260;-73
2022/10/25 12:53:36;;;;;;;;;;;19.60;99.90;;;;;;5026214;28;20010;-73
2022/10/25 12:56:04;;;;;;;;;;;19.50;99.90;;;;;;5045846;28;19928;-74
2022/10/25 12:58:42;;;;;;;;;;;19.70;99.90;;;;;;5044615;28;19924;-74
2022/10/25 13:01:21;;;;;;;;;;;19.80;99.90;;;;;;5044156;28;19928;-75
2022/10/25 13:03:53;;;;;;;;;;;19.90;99.90;;;;;;5039896;28;19920;-74
2022/10/25 13:06:27;;;;;;;;;;;19.70;99.90;;;;;;5043508;28;19995;-74
2022/10/25 13:08:55;;;;;;;;;;;19.40;99.90;;;;;;5043082;28;19920;-74
2022/10/25 13:11:30;;;;;;;;;;;19.50;99.90;;;;;;5049624;28;19916;-74
2022/10/25 13:13:55;;;;;;;;;;;19.60;99.90;;;;;;5044512;28;19971;-74
2022/10/25 13:16:31;;;;;;;;;;;19.60;99.90;;;;;;5052169;28;20259;-74
2022/10/25 13:19:29;;;;;;;;;;;19.40;99.90;;;;;;5054057;28;19954;-75
2022/10/25 13:21:55;;;;;;;;;;;19.10;99.90;;;;;;5007162;28;19926;-74
2022/10/25 13:24:39;;;;;;;;;;;18.90;99.90;;;;;;5052668;28;19920;-74
2022/10/25 13:27:10;;;;;;;;;;;18.80;99.90;;;;;;5048533;28;19943;-75
2022/10/25 13:29:45;;;;;;;;;;;18.60;99.90;;;;;;5056834;28;19923;-74
2022/10/25 13:32:20;;;;;;;;;;;18.50;99.90;;;;;;5030987;28;19920;-75
2022/10/25 13:34:46;;;;;;;;;;;18.30;99.90;;;;;;5044892;28;19917;-75
2022/10/25 13:37:30;;;;;;;;;;;18.20;99.90;;;;;;5052160;28;20560;-74
2022/10/25 13:39:57;;;;;;;;;;;18.10;99.90;;;;;;5058471;28;20126;-73
2022/10/25 13:42:26;;;;;;;;;;;17.80;99.90;;;;;;5055067;28;19985;-73
2022/10/25 13:45:00;;;;;;;;;;;17.70;99.90;;;;;;5033470;28;19975;-75
2022/10/25 13:47:39;;;;;;;;;;;17.80;99.90;;;;;;5052095;28;19956;-76
2022/10/25 13:50:25;;;;;;;;;;;17.90;99.90;;;;;;5056748;28;19921;-74
2022/10/25 13:53:18;;;;;;;;;;;18.30;99.90;;;;;;5034024;28;19920;-75
2022/10/25 13:55:45;;;;;;;;;;;18.60;99.90;;;;;;5050300;28;19921;-74
2022/10/25 13:58:29;;;;;;;;;;;18.40;99.90;;;;;;5056981;28;20312;-74
2022/10/25 14:01:13;;;;;;;;;;;18.20;99.90;;;;;;5060525;28;19935;-73
2022/10/25 14:03:53;;;;;;;;;;;18.30;99.90;;;;;;5056375;28;19955;-74
2022/10/25 14:06:22;;;;;;;;;;;18.40;99.90;;;;;;5055236;28;19947;-73
2022/10/25 14:09:10;;;;;;;;;;;18.30;99.90;;;;;;5043054;28;20013;-73
2022/10/25 14:11:51;;;;;;;;;;;18.20;99.90;;;;;;5054197;28;20531;-73
2022/10/25 14:14:22;;;;;;;;;;;17.80;99.90;;;;;;5041405;28;20019;-74
2022/10/25 14:17:06;;;;;;;;;;;17.80;99.90;;;;;;5061458;28;20006;-73
2022/10/25 14:19:36;;;;;;;;;;;17.70;99.90;;;;;;5063057;28;19928;-74
2022/10/25 14:22:03;;;;;;;;;;;17.60;99.90;;;;;;5040241;28;19924;-73
2022/10/25 14:24:29;;;;;;;;;;;17.70;99.90;;;;;;5036283;28;19954;-73
2022/10/25 14:26:58;;;;;;;;;;;17.90;99.90;;;;;;5043461;28;20290;-74